sensor_id;sensor_type;location;lat;lon;timestamp;P1;durP1;ratioP1;P2;durP2;ratioP2
5722;SDS011;2886;49.722;8.612;2023-03-15T00:00:29;7.43;;;3.27;;
5722;SDS011;2886;49.722;8.612;2023-03-15T00:02:55;3.00;;;2.40;;
5722;SDS011;2886;49.722;8.612;2023-03-15T00:05:20;4.53;;;2.43;;
5722;SDS011;2886;49.722;8.612;2023-03-15T00:07:46;4.87;;;2.40;;
5722;SDS011;2886;49.722;8.612;2023-03-15T00:10:14;5.20;;;3.13;;
5722;SDS011;2886;49.722;8.612;2023-03-15T00:12:43;4.03;;;2.10;;
5722;SDS011;2886;49.722;8.612;2023-03-15T00:15:08;2.57;;;2.30;;
5722;SDS011;2886;49.722;8.612;2023-03-15T00:17:38;7.00;;;1.70;;
5722;SDS011;2886;49.722;8.612;2023-03-15T00:20:04;1.70;;;1.60;;
5722;SDS011;2886;49.722;8.612;2023-03-15T00:22:30;6.83;;;2.07;;
5722;SDS011;2886;49.722;8.612;2023-03-15T00:24:56;6.03;;;2.00;;
5722;SDS011;2886;49.722;8.612;2023-03-15T00:27:21;4.50;;;1.80;;
5722;SDS011;2886;49.722;8.612;2023-03-15T00:29:47;4.40;;;1.80;;
5722;SDS011;2886;49.722;8.612;2023-03-15T00:32:13;4.10;;;2.07;;
5722;SDS011;2886;49.722;8.612;2023-03-15T00:34:38;9.60;;;1.97;;
5722;SDS011;2886;49.722;8.612;2023-03-15T00:37:04;3.13;;;1.90;;
5722;SDS011;2886;49.722;8.612;2023-03-15T00:39:30;7.50;;;1.83;;
5722;SDS011;2886;49.722;8.612;2023-03-15T00:41:55;9.97;;;3.00;;
5722;SDS011;2886;49.722;8.612;2023-03-15T00:44:22;4.50;;;2.40;;
5722;SDS011;2886;49.722;8.612;2023-03-15T00:46:48;3.07;;;1.97;;
5722;SDS011;2886;49.722;8.612;2023-03-15T00:49:14;4.70;;;2.10;;
5722;SDS011;2886;49.722;8.612;2023-03-15T00:51:40;5.23;;;2.67;;
5722;SDS011;2886;49.722;8.612;2023-03-15T00:54:05;4.20;;;2.17;;
5722;SDS011;2886;49.722;8.612;2023-03-15T00:56:31;13.67;;;2.00;;
5722;SDS011;2886;49.722;8.612;2023-03-15T00:58:58;10.43;;;2.20;;
5722;SDS011;2886;49.722;8.612;2023-03-15T01:01:25;1.50;;;1.40;;
5722;SDS011;2886;49.722;8.612;2023-03-15T01:03:52;5.03;;;2.07;;
5722;SDS011;2886;49.722;8.612;2023-03-15T01:06:19;2.80;;;1.97;;
5722;SDS011;2886;49.722;8.612;2023-03-15T01:08:47;3.30;;;1.70;;
5722;SDS011;2886;49.722;8.612;2023-03-15T01:11:14;1.83;;;1.63;;
5722;SDS011;2886;49.722;8.612;2023-03-15T01:13:41;10.53;;;1.70;;
5722;SDS011;2886;49.722;8.612;2023-03-15T01:16:09;6.30;;;2.10;;
5722;SDS011;2886;49.722;8.612;2023-03-15T01:18:36;10.13;;;2.27;;
5722;SDS011;2886;49.722;8.612;2023-03-15T01:21:05;4.30;;;1.40;;
5722;SDS011;2886;49.722;8.612;2023-03-15T01:23:31;5.57;;;2.13;;
5722;SDS011;2886;49.722;8.612;2023-03-15T01:28:27;3.17;;;1.47;;
5722;SDS011;2886;49.722;8.612;2023-03-15T01:30:53;5.93;;;1.57;;
5722;SDS011;2886;49.722;8.612;2023-03-15T01:33:19;1.47;;;1.37;;
5722;SDS011;2886;49.722;8.612;2023-03-15T01:35:45;7.60;;;1.77;;
5722;SDS011;2886;49.722;8.612;2023-03-15T01:38:11;6.03;;;1.60;;
5722;SDS011;2886;49.722;8.612;2023-03-15T01:40:41;3.20;;;1.50;;
5722;SDS011;2886;49.722;8.612;2023-03-15T01:43:17;3.70;;;1.70;;
5722;SDS011;2886;49.722;8.612;2023-03-15T01:54:05;3.97;;;1.90;;
5722;SDS011;2886;49.722;8.612;2023-03-15T01:59:28;4.20;;;2.13;;
5722;SDS011;2886;49.722;8.612;2023-03-15T02:01:57;9.50;;;3.10;;
5722;SDS011;2886;49.722;8.612;2023-03-15T02:04:31;8.83;;;2.60;;
5722;SDS011;2886;49.722;8.612;2023-03-15T02:07:02;3.20;;;1.60;;
5722;SDS011;2886;49.722;8.612;2023-03-15T02:09:39;6.30;;;2.57;;
5722;SDS011;2886;49.722;8.612;2023-03-15T02:12:11;2.40;;;2.03;;
5722;SDS011;2886;49.722;8.612;2023-03-15T02:14:37;8.43;;;2.33;;
5722;SDS011;2886;49.722;8.612;2023-03-15T02:17:04;4.43;;;2.50;;
5722;SDS011;2886;49.722;8.612;2023-03-15T02:19:41;2.50;;;2.30;;
5722;SDS011;2886;49.722;8.612;2023-03-15T02:22:25;13.40;;;2.93;;
5722;SDS011;2886;49.722;8.612;2023-03-15T02:25:24;5.63;;;2.50;;
5722;SDS011;2886;49.722;8.612;2023-03-15T02:28:07;5.47;;;2.90;;
5722;SDS011;2886;49.722;8.612;2023-03-15T02:30:35;8.93;;;2.23;;
5722;SDS011;2886;49.722;8.612;2023-03-15T02:33:01;8.27;;;3.00;;
5722;SDS011;2886;49.722;8.612;2023-03-15T02:35:31;3.90;;;2.43;;
5722;SDS011;2886;49.722;8.612;2023-03-15T02:37:57;3.30;;;1.73;;
5722;SDS011;2886;49.722;8.612;2023-03-15T02:40:24;5.07;;;2.80;;
5722;SDS011;2886;49.722;8.612;2023-03-15T02:42:54;4.63;;;2.87;;
5722;SDS011;2886;49.722;8.612;2023-03-15T02:45:26;3.63;;;2.07;;
5722;SDS011;2886;49.722;8.612;2023-03-15T02:47:56;2.50;;;2.17;;
5722;SDS011;2886;49.722;8.612;2023-03-15T02:50:22;4.93;;;1.47;;
5722;SDS011;2886;49.722;8.612;2023-03-15T02:52:48;5.10;;;2.43;;
5722;SDS011;2886;49.722;8.612;2023-03-15T02:55:13;3.33;;;2.20;;
5722;SDS011;2886;49.722;8.612;2023-03-15T02:57:39;8.27;;;3.33;;
5722;SDS011;2886;49.722;8.612;2023-03-15T03:00:05;4.30;;;2.20;;
5722;SDS011;2886;49.722;8.612;2023-03-15T03:02:37;10.80;;;2.23;;
5722;SDS011;2886;49.722;8.612;2023-03-15T03:05:03;3.50;;;1.83;;
5722;SDS011;2886;49.722;8.612;2023-03-15T03:07:29;7.13;;;2.10;;
5722;SDS011;2886;49.722;8.612;2023-03-15T03:09:55;4.60;;;1.90;;
5722;SDS011;2886;49.722;8.612;2023-03-15T03:12:20;3.00;;;2.10;;
5722;SDS011;2886;49.722;8.612;2023-03-15T03:14:47;7.40;;;2.03;;
5722;SDS011;2886;49.722;8.612;2023-03-15T03:17:13;1.90;;;1.80;;
5722;SDS011;2886;49.722;8.612;2023-03-15T03:19:39;4.07;;;2.40;;
5722;SDS011;2886;49.722;8.612;2023-03-15T03:22:05;4.53;;;2.30;;
5722;SDS011;2886;49.722;8.612;2023-03-15T03:24:30;5.43;;;2.30;;
5722;SDS011;2886;49.722;8.612;2023-03-15T03:26:57;4.53;;;1.60;;
5722;SDS011;2886;49.722;8.612;2023-03-15T03:29:23;2.17;;;1.67;;
5722;SDS011;2886;49.722;8.612;2023-03-15T03:31:49;3.60;;;2.00;;
5722;SDS011;2886;49.722;8.612;2023-03-15T03:34:15;2.20;;;1.60;;
5722;SDS011;2886;49.722;8.612;2023-03-15T03:36:41;4.23;;;1.80;;
5722;SDS011;2886;49.722;8.612;2023-03-15T03:39:07;4.40;;;2.63;;
5722;SDS011;2886;49.722;8.612;2023-03-15T03:41:33;5.70;;;1.83;;
5722;SDS011;2886;49.722;8.612;2023-03-15T03:43:59;5.10;;;2.57;;
5722;SDS011;2886;49.722;8.612;2023-03-15T03:46:25;3.37;;;2.20;;
5722;SDS011;2886;49.722;8.612;2023-03-15T03:48:52;8.60;;;2.50;;
5722;SDS011;2886;49.722;8.612;2023-03-15T03:51:18;5.93;;;3.80;;
5722;SDS011;2886;49.722;8.612;2023-03-15T03:53:43;2.27;;;2.07;;
5722;SDS011;2886;49.722;8.612;2023-03-15T03:56:09;8.80;;;2.30;;
5722;SDS011;2886;49.722;8.612;2023-03-15T03:58:35;6.77;;;2.17;;
5722;SDS011;2886;49.722;8.612;2023-03-15T04:01:00;2.70;;;1.83;;
5722;SDS011;2886;49.722;8.612;2023-03-15T04:03:26;4.60;;;2.10;;
5722;SDS011;2886;49.722;8.612;2023-03-15T04:05:55;5.03;;;1.50;;
5722;SDS011;2886;49.722;8.612;2023-03-15T04:08:22;2.70;;;1.90;;
5722;SDS011;2886;49.722;8.612;2023-03-15T04:10:53;4.10;;;2.10;;
5722;SDS011;2886;49.722;8.612;2023-03-15T04:13:21;4.13;;;1.83;;
5722;SDS011;2886;49.722;8.612;2023-03-15T04:15:48;6.83;;;3.10;;
5722;SDS011;2886;49.722;8.612;2023-03-15T04:18:14;2.43;;;2.10;;
5722;SDS011;2886;49.722;8.612;2023-03-15T04:20:40;4.73;;;2.30;;
5722;SDS011;2886;49.722;8.612;2023-03-15T04:23:15;5.00;;;2.20;;
5722;SDS011;2886;49.722;8.612;2023-03-15T04:25:43;8.33;;;2.57;;
5722;SDS011;2886;49.722;8.612;2023-03-15T04:28:11;6.80;;;1.70;;
5722;SDS011;2886;49.722;8.612;2023-03-15T04:30:37;5.70;;;1.93;;
5722;SDS011;2886;49.722;8.612;2023-03-15T04:33:03;10.73;;;2.23;;
5722;SDS011;2886;49.722;8.612;2023-03-15T04:35:30;6.60;;;2.20;;
5722;SDS011;2886;49.722;8.612;2023-03-15T04:37:57;15.17;;;1.87;;
5722;SDS011;2886;49.722;8.612;2023-03-15T04:40:23;7.27;;;2.57;;
5722;SDS011;2886;49.722;8.612;2023-03-15T04:42:49;4.90;;;1.90;;
5722;SDS011;2886;49.722;8.612;2023-03-15T04:45:15;4.90;;;1.90;;
5722;SDS011;2886;49.722;8.612;2023-03-15T04:47:41;4.43;;;2.23;;
5722;SDS011;2886;49.722;8.612;2023-03-15T04:50:08;2.10;;;1.73;;
5722;SDS011;2886;49.722;8.612;2023-03-15T04:52:34;1.90;;;1.80;;
5722;SDS011;2886;49.722;8.612;2023-03-15T04:55:00;4.00;;;2.00;;
5722;SDS011;2886;49.722;8.612;2023-03-15T04:57:25;2.70;;;1.90;;
5722;SDS011;2886;49.722;8.612;2023-03-15T04:59:51;2.47;;;1.97;;
5722;SDS011;2886;49.722;8.612;2023-03-15T05:02:16;8.83;;;2.90;;
5722;SDS011;2886;49.722;8.612;2023-03-15T05:04:42;6.10;;;2.50;;
5722;SDS011;2886;49.722;8.612;2023-03-15T05:07:08;12.30;;;2.60;;
5722;SDS011;2886;49.722;8.612;2023-03-15T05:09:34;2.70;;;1.83;;
5722;SDS011;2886;49.722;8.612;2023-03-15T05:12:03;5.13;;;2.60;;
5722;SDS011;2886;49.722;8.612;2023-03-15T05:14:30;9.43;;;2.53;;
5722;SDS011;2886;49.722;8.612;2023-03-15T05:16:56;8.47;;;2.60;;
5722;SDS011;2886;49.722;8.612;2023-03-15T05:19:24;6.10;;;2.90;;
5722;SDS011;2886;49.722;8.612;2023-03-15T05:21:50;6.50;;;2.70;;
5722;SDS011;2886;49.722;8.612;2023-03-15T05:24:16;4.53;;;2.43;;
5722;SDS011;2886;49.722;8.612;2023-03-15T05:26:42;5.10;;;2.00;;
5722;SDS011;2886;49.722;8.612;2023-03-15T05:29:11;6.00;;;2.90;;
5722;SDS011;2886;49.722;8.612;2023-03-15T05:31:37;3.77;;;2.27;;
5722;SDS011;2886;49.722;8.612;2023-03-15T05:34:03;5.30;;;2.63;;
5722;SDS011;2886;49.722;8.612;2023-03-15T05:36:31;7.20;;;2.93;;
5722;SDS011;2886;49.722;8.612;2023-03-15T05:38:58;13.53;;;2.70;;
5722;SDS011;2886;49.722;8.612;2023-03-15T05:41:24;2.87;;;2.20;;
5722;SDS011;2886;49.722;8.612;2023-03-15T05:43:50;7.13;;;2.80;;
5722;SDS011;2886;49.722;8.612;2023-03-15T05:46:16;4.87;;;3.03;;
5722;SDS011;2886;49.722;8.612;2023-03-15T05:48:41;6.30;;;3.10;;
5722;SDS011;2886;49.722;8.612;2023-03-15T05:51:07;9.20;;;2.90;;
5722;SDS011;2886;49.722;8.612;2023-03-15T05:53:33;2.77;;;2.43;;
5722;SDS011;2886;49.722;8.612;2023-03-15T05:55:59;7.53;;;3.60;;
5722;SDS011;2886;49.722;8.612;2023-03-15T05:58:24;9.57;;;3.53;;
5722;SDS011;2886;49.722;8.612;2023-03-15T06:00:51;12.43;;;4.07;;
5722;SDS011;2886;49.722;8.612;2023-03-15T06:03:17;6.20;;;4.10;;
5722;SDS011;2886;49.722;8.612;2023-03-15T06:05:43;8.47;;;4.03;;
5722;SDS011;2886;49.722;8.612;2023-03-15T06:08:08;7.00;;;3.37;;
5722;SDS011;2886;49.722;8.612;2023-03-15T06:10:34;15.73;;;4.10;;
5722;SDS011;2886;49.722;8.612;2023-03-15T06:12:59;8.90;;;3.40;;
5722;SDS011;2886;49.722;8.612;2023-03-15T06:15:25;27.00;;;4.40;;
5722;SDS011;2886;49.722;8.612;2023-03-15T06:17:51;17.47;;;3.93;;
5722;SDS011;2886;49.722;8.612;2023-03-15T06:20:17;6.97;;;3.87;;
5722;SDS011;2886;49.722;8.612;2023-03-15T06:22:42;7.90;;;3.93;;
5722;SDS011;2886;49.722;8.612;2023-03-15T06:25:08;12.33;;;4.00;;
5722;SDS011;2886;49.722;8.612;2023-03-15T06:27:34;8.07;;;4.20;;
5722;SDS011;2886;49.722;8.612;2023-03-15T06:30:00;8.20;;;3.57;;
5722;SDS011;2886;49.722;8.612;2023-03-15T06:32:26;5.20;;;4.17;;
5722;SDS011;2886;49.722;8.612;2023-03-15T06:34:52;7.13;;;3.53;;
5722;SDS011;2886;49.722;8.612;2023-03-15T06:37:17;10.50;;;4.13;;
5722;SDS011;2886;49.722;8.612;2023-03-15T06:39:43;13.03;;;4.20;;
5722;SDS011;2886;49.722;8.612;2023-03-15T06:42:09;8.23;;;3.30;;
5722;SDS011;2886;49.722;8.612;2023-03-15T06:44:38;7.57;;;4.20;;
5722;SDS011;2886;49.722;8.612;2023-03-15T06:47:04;5.93;;;3.70;;
5722;SDS011;2886;49.722;8.612;2023-03-15T06:49:30;9.73;;;3.70;;
5722;SDS011;2886;49.722;8.612;2023-03-15T06:51:56;8.60;;;3.67;;
5722;SDS011;2886;49.722;8.612;2023-03-15T06:54:22;8.23;;;3.53;;
5722;SDS011;2886;49.722;8.612;2023-03-15T06:56:48;10.60;;;3.90;;
5722;SDS011;2886;49.722;8.612;2023-03-15T06:59:14;5.93;;;3.40;;
5722;SDS011;2886;49.722;8.612;2023-03-15T07:01:39;7.43;;;3.90;;
5722;SDS011;2886;49.722;8.612;2023-03-15T07:04:06;7.30;;;3.60;;
5722;SDS011;2886;49.722;8.612;2023-03-15T07:06:32;15.60;;;4.67;;
5722;SDS011;2886;49.722;8.612;2023-03-15T07:08:58;10.03;;;4.10;;
5722;SDS011;2886;49.722;8.612;2023-03-15T07:11:23;10.13;;;3.83;;
5722;SDS011;2886;49.722;8.612;2023-03-15T07:13:49;7.67;;;4.40;;
5722;SDS011;2886;49.722;8.612;2023-03-15T07:16:15;14.23;;;4.80;;
5722;SDS011;2886;49.722;8.612;2023-03-15T07:18:40;10.73;;;4.10;;
5722;SDS011;2886;49.722;8.612;2023-03-15T07:21:06;9.20;;;3.90;;
5722;SDS011;2886;49.722;8.612;2023-03-15T07:23:32;10.63;;;4.30;;
5722;SDS011;2886;49.722;8.612;2023-03-15T07:25:58;6.83;;;3.60;;
5722;SDS011;2886;49.722;8.612;2023-03-15T07:28:24;9.67;;;3.90;;
5722;SDS011;2886;49.722;8.612;2023-03-15T07:33:21;9.67;;;4.67;;
5722;SDS011;2886;49.722;8.612;2023-03-15T07:35:47;7.20;;;3.90;;
5722;SDS011;2886;49.722;8.612;2023-03-15T07:38:14;7.10;;;4.00;;
5722;SDS011;2886;49.722;8.612;2023-03-15T07:40:40;9.83;;;4.63;;
5722;SDS011;2886;49.722;8.612;2023-03-15T07:43:06;9.57;;;4.30;;
5722;SDS011;2886;49.722;8.612;2023-03-15T07:45:31;12.00;;;4.67;;
5722;SDS011;2886;49.722;8.612;2023-03-15T07:47:58;7.23;;;3.67;;
5722;SDS011;2886;49.722;8.612;2023-03-15T07:50:24;11.37;;;3.87;;
5722;SDS011;2886;49.722;8.612;2023-03-15T07:52:50;14.17;;;3.77;;
5722;SDS011;2886;49.722;8.612;2023-03-15T07:55:16;15.60;;;5.27;;
5722;SDS011;2886;49.722;8.612;2023-03-15T07:57:42;6.70;;;4.23;;
5722;SDS011;2886;49.722;8.612;2023-03-15T08:00:09;6.97;;;3.93;;
5722;SDS011;2886;49.722;8.612;2023-03-15T08:02:37;12.00;;;4.40;;
5722;SDS011;2886;49.722;8.612;2023-03-15T08:05:04;12.23;;;4.10;;
5722;SDS011;2886;49.722;8.612;2023-03-15T08:07:30;9.90;;;4.77;;
5722;SDS011;2886;49.722;8.612;2023-03-15T08:09:56;7.03;;;4.10;;
5722;SDS011;2886;49.722;8.612;2023-03-15T08:12:25;8.43;;;4.00;;
5722;SDS011;2886;49.722;8.612;2023-03-15T08:14:51;12.27;;;4.47;;
5722;SDS011;2886;49.722;8.612;2023-03-15T08:17:17;11.43;;;5.23;;
5722;SDS011;2886;49.722;8.612;2023-03-15T08:19:43;7.87;;;5.00;;
5722;SDS011;2886;49.722;8.612;2023-03-15T08:22:09;7.70;;;4.90;;
5722;SDS011;2886;49.722;8.612;2023-03-15T08:24:35;9.33;;;4.67;;
5722;SDS011;2886;49.722;8.612;2023-03-15T08:27:01;11.83;;;4.50;;
5722;SDS011;2886;49.722;8.612;2023-03-15T08:29:27;7.60;;;4.40;;
5722;SDS011;2886;49.722;8.612;2023-03-15T08:31:53;14.43;;;4.83;;
5722;SDS011;2886;49.722;8.612;2023-03-15T08:34:19;6.63;;;4.60;;
5722;SDS011;2886;49.722;8.612;2023-03-15T08:36:45;6.53;;;4.20;;
5722;SDS011;2886;49.722;8.612;2023-03-15T08:39:12;10.23;;;4.50;;
5722;SDS011;2886;49.722;8.612;2023-03-15T08:41:38;8.17;;;4.40;;
5722;SDS011;2886;49.722;8.612;2023-03-15T08:44:04;10.67;;;4.40;;
5722;SDS011;2886;49.722;8.612;2023-03-15T08:46:30;6.57;;;4.10;;
5722;SDS011;2886;49.722;8.612;2023-03-15T08:48:58;6.33;;;3.83;;
5722;SDS011;2886;49.722;8.612;2023-03-15T08:51:24;12.60;;;5.40;;
5722;SDS011;2886;49.722;8.612;2023-03-15T08:53:51;13.30;;;4.90;;
5722;SDS011;2886;49.722;8.612;2023-03-15T08:56:17;18.17;;;5.30;;
5722;SDS011;2886;49.722;8.612;2023-03-15T08:58:43;8.33;;;4.47;;
5722;SDS011;2886;49.722;8.612;2023-03-15T09:01:10;7.57;;;4.67;;
5722;SDS011;2886;49.722;8.612;2023-03-15T09:03:36;10.10;;;3.90;;
5722;SDS011;2886;49.722;8.612;2023-03-15T09:06:02;7.73;;;4.30;;
5722;SDS011;2886;49.722;8.612;2023-03-15T09:08:28;10.10;;;5.00;;
5722;SDS011;2886;49.722;8.612;2023-03-15T09:10:54;13.97;;;4.07;;
5722;SDS011;2886;49.722;8.612;2023-03-15T09:13:20;12.07;;;4.97;;
5722;SDS011;2886;49.722;8.612;2023-03-15T09:15:50;7.17;;;4.60;;
5722;SDS011;2886;49.722;8.612;2023-03-15T09:18:16;9.17;;;4.97;;
5722;SDS011;2886;49.722;8.612;2023-03-15T09:20:43;9.77;;;4.50;;
5722;SDS011;2886;49.722;8.612;2023-03-15T09:23:08;5.73;;;3.83;;
5722;SDS011;2886;49.722;8.612;2023-03-15T09:25:34;10.33;;;5.00;;
5722;SDS011;2886;49.722;8.612;2023-03-15T09:28:01;7.77;;;4.80;;
5722;SDS011;2886;49.722;8.612;2023-03-15T09:30:34;8.40;;;4.63;;
5722;SDS011;2886;49.722;8.612;2023-03-15T09:33:01;8.13;;;4.37;;
5722;SDS011;2886;49.722;8.612;2023-03-15T09:35:27;6.70;;;4.53;;
5722;SDS011;2886;49.722;8.612;2023-03-15T09:37:53;7.20;;;4.17;;
5722;SDS011;2886;49.722;8.612;2023-03-15T09:40:20;12.37;;;5.30;;
5722;SDS011;2886;49.722;8.612;2023-03-15T09:43:03;14.40;;;5.40;;
5722;SDS011;2886;49.722;8.612;2023-03-15T09:50:32;8.90;;;4.30;;
5722;SDS011;2886;49.722;8.612;2023-03-15T09:53:20;11.57;;;5.63;;
5722;SDS011;2886;49.722;8.612;2023-03-15T09:55:53;14.40;;;4.47;;
5722;SDS011;2886;49.722;8.612;2023-03-15T09:58:27;5.63;;;3.93;;
5722;SDS011;2886;49.722;8.612;2023-03-15T10:01:03;9.50;;;4.00;;
5722;SDS011;2886;49.722;8.612;2023-03-15T10:06:22;9.80;;;4.63;;
5722;SDS011;2886;49.722;8.612;2023-03-15T10:08:53;16.33;;;5.50;;
5722;SDS011;2886;49.722;8.612;2023-03-15T10:16:58;6.93;;;3.80;;
5722;SDS011;2886;49.722;8.612;2023-03-15T10:24:46;11.80;;;4.80;;
5722;SDS011;2886;49.722;8.612;2023-03-15T10:27:20;10.40;;;3.93;;
5722;SDS011;2886;49.722;8.612;2023-03-15T10:30:11;10.77;;;5.00;;
5722;SDS011;2886;49.722;8.612;2023-03-15T10:32:42;7.67;;;4.50;;
5722;SDS011;2886;49.722;8.612;2023-03-15T10:35:13;6.83;;;4.03;;
5722;SDS011;2886;49.722;8.612;2023-03-15T10:37:41;12.17;;;4.37;;
5722;SDS011;2886;49.722;8.612;2023-03-15T10:40:08;11.60;;;5.30;;
5722;SDS011;2886;49.722;8.612;2023-03-15T10:42:40;6.70;;;4.20;;
5722;SDS011;2886;49.722;8.612;2023-03-15T10:47:47;5.17;;;3.87;;
5722;SDS011;2886;49.722;8.612;2023-03-15T10:52:55;9.27;;;4.20;;
5722;SDS011;2886;49.722;8.612;2023-03-15T10:55:30;9.30;;;3.63;;
5722;SDS011;2886;49.722;8.612;2023-03-15T10:57:58;11.80;;;4.70;;
5722;SDS011;2886;49.722;8.612;2023-03-15T11:00:43;8.53;;;4.00;;
5722;SDS011;2886;49.722;8.612;2023-03-15T11:03:20;10.30;;;4.43;;
5722;SDS011;2886;49.722;8.612;2023-03-15T11:05:48;10.93;;;4.30;;
5722;SDS011;2886;49.722;8.612;2023-03-15T11:08:17;8.77;;;4.23;;
5722;SDS011;2886;49.722;8.612;2023-03-15T11:10:45;10.97;;;5.33;;
5722;SDS011;2886;49.722;8.612;2023-03-15T11:15:59;8.37;;;5.03;;
5722;SDS011;2886;49.722;8.612;2023-03-15T11:21:28;9.40;;;4.97;;
5722;SDS011;2886;49.722;8.612;2023-03-15T11:24:01;10.77;;;5.60;;
5722;SDS011;2886;49.722;8.612;2023-03-15T11:26:30;10.03;;;5.30;;
5722;SDS011;2886;49.722;8.612;2023-03-15T11:29:02;7.80;;;4.83;;
5722;SDS011;2886;49.722;8.612;2023-03-15T11:31:31;8.13;;;4.90;;
5722;SDS011;2886;49.722;8.612;2023-03-15T11:34:02;12.60;;;6.70;;
5722;SDS011;2886;49.722;8.612;2023-03-15T11:36:32;9.30;;;5.20;;
5722;SDS011;2886;49.722;8.612;2023-03-15T11:39:02;15.23;;;4.87;;
5722;SDS011;2886;49.722;8.612;2023-03-15T11:44:02;8.77;;;4.70;;
5722;SDS011;2886;49.722;8.612;2023-03-15T11:46:38;11.87;;;5.57;;
5722;SDS011;2886;49.722;8.612;2023-03-15T11:49:54;9.20;;;5.27;;
5722;SDS011;2886;49.722;8.612;2023-03-15T11:52:10;11.43;;;5.97;;
5722;SDS011;2886;49.722;8.612;2023-03-15T11:54:36;7.53;;;5.40;;
5722;SDS011;2886;49.722;8.612;2023-03-15T11:57:04;9.40;;;5.37;;
5722;SDS011;2886;49.722;8.612;2023-03-15T11:59:50;11.20;;;6.50;;
5722;SDS011;2886;49.722;8.612;2023-03-15T12:04:45;10.63;;;6.57;;
5722;SDS011;2886;49.722;8.612;2023-03-15T12:14:53;11.00;;;5.67;;
5722;SDS011;2886;49.722;8.612;2023-03-15T12:19:59;14.70;;;6.40;;
5722;SDS011;2886;49.722;8.612;2023-03-15T12:23:11;10.10;;;5.50;;
5722;SDS011;2886;49.722;8.612;2023-03-15T12:28:28;9.80;;;5.13;;
5722;SDS011;2886;49.722;8.612;2023-03-15T12:30:58;8.70;;;5.73;;
5722;SDS011;2886;49.722;8.612;2023-03-15T12:33:26;9.77;;;5.23;;
5722;SDS011;2886;49.722;8.612;2023-03-15T12:36:07;14.10;;;5.80;;
5722;SDS011;2886;49.722;8.612;2023-03-15T12:38:38;8.47;;;5.13;;
5722;SDS011;2886;49.722;8.612;2023-03-15T12:41:32;6.00;;;4.40;;
5722;SDS011;2886;49.722;8.612;2023-03-15T12:44:24;8.67;;;6.47;;
5722;SDS011;2886;49.722;8.612;2023-03-15T12:46:56;8.97;;;5.37;;
5722;SDS011;2886;49.722;8.612;2023-03-15T12:51:54;13.93;;;5.70;;
5722;SDS011;2886;49.722;8.612;2023-03-15T12:54:21;7.90;;;5.27;;
5722;SDS011;2886;49.722;8.612;2023-03-15T12:56:53;7.37;;;5.10;;
5722;SDS011;2886;49.722;8.612;2023-03-15T12:59:44;7.33;;;5.10;;
5722;SDS011;2886;49.722;8.612;2023-03-15T13:05:06;7.00;;;4.73;;
5722;SDS011;2886;49.722;8.612;2023-03-15T13:12:56;5.13;;;4.40;;
5722;SDS011;2886;49.722;8.612;2023-03-15T13:15:28;8.47;;;5.20;;
5722;SDS011;2886;49.722;8.612;2023-03-15T13:18:02;10.50;;;6.13;;
5722;SDS011;2886;49.722;8.612;2023-03-15T13:20:57;5.80;;;4.40;;
5722;SDS011;2886;49.722;8.612;2023-03-15T13:23:30;7.30;;;4.80;;
5722;SDS011;2886;49.722;8.612;2023-03-15T13:29:01;7.93;;;4.13;;
5722;SDS011;2886;49.722;8.612;2023-03-15T13:31:35;8.63;;;5.33;;
5722;SDS011;2886;49.722;8.612;2023-03-15T13:34:12;10.90;;;4.50;;
5722;SDS011;2886;49.722;8.612;2023-03-15T13:36:46;9.37;;;4.90;;
5722;SDS011;2886;49.722;8.612;2023-03-15T13:39:20;8.33;;;4.67;;
5722;SDS011;2886;49.722;8.612;2023-03-15T13:41:47;5.60;;;4.10;;
5722;SDS011;2886;49.722;8.612;2023-03-15T13:44:20;5.50;;;3.97;;
5722;SDS011;2886;49.722;8.612;2023-03-15T13:46:47;6.70;;;4.27;;
5722;SDS011;2886;49.722;8.612;2023-03-15T13:49:15;7.13;;;4.37;;
5722;SDS011;2886;49.722;8.612;2023-03-15T13:51:40;8.00;;;3.63;;
5722;SDS011;2886;49.722;8.612;2023-03-15T13:54:10;5.90;;;3.80;;
5722;SDS011;2886;49.722;8.612;2023-03-15T13:59:40;3.77;;;3.10;;
5722;SDS011;2886;49.722;8.612;2023-03-15T14:02:20;4.07;;;2.80;;
5722;SDS011;2886;49.722;8.612;2023-03-15T14:05:09;7.83;;;3.20;;
5722;SDS011;2886;49.722;8.612;2023-03-15T14:07:37;3.77;;;3.00;;
5722;SDS011;2886;49.722;8.612;2023-03-15T14:12:43;4.20;;;2.93;;
5722;SDS011;2886;49.722;8.612;2023-03-15T14:15:16;2.83;;;2.50;;
5722;SDS011;2886;49.722;8.612;2023-03-15T14:17:59;6.53;;;3.30;;
5722;SDS011;2886;49.722;8.612;2023-03-15T14:20:45;5.67;;;2.93;;
5722;SDS011;2886;49.722;8.612;2023-03-15T14:23:17;7.73;;;3.47;;
5722;SDS011;2886;49.722;8.612;2023-03-15T14:26:00;4.17;;;3.20;;
5722;SDS011;2886;49.722;8.612;2023-03-15T14:28:51;4.47;;;3.33;;
5722;SDS011;2886;49.722;8.612;2023-03-15T14:31:26;6.87;;;4.10;;
5722;SDS011;2886;49.722;8.612;2023-03-15T14:33:57;6.87;;;3.47;;
5722;SDS011;2886;49.722;8.612;2023-03-15T14:36:40;6.33;;;4.10;;
5722;SDS011;2886;49.722;8.612;2023-03-15T14:39:15;9.50;;;3.63;;
5722;SDS011;2886;49.722;8.612;2023-03-15T14:41:43;3.60;;;2.70;;
5722;SDS011;2886;49.722;8.612;2023-03-15T14:44:09;3.90;;;2.70;;
5722;SDS011;2886;49.722;8.612;2023-03-15T14:46:35;3.70;;;2.80;;
5722;SDS011;2886;49.722;8.612;2023-03-15T14:49:01;3.23;;;2.70;;
5722;SDS011;2886;49.722;8.612;2023-03-15T14:51:27;4.43;;;3.03;;
5722;SDS011;2886;49.722;8.612;2023-03-15T14:53:53;3.03;;;2.63;;
5722;SDS011;2886;49.722;8.612;2023-03-15T14:56:21;3.47;;;2.60;;
5722;SDS011;2886;49.722;8.612;2023-03-15T14:58:48;18.70;;;7.63;;
5722;SDS011;2886;49.722;8.612;2023-03-15T15:01:16;42.60;;;17.53;;
5722;SDS011;2886;49.722;8.612;2023-03-15T15:03:50;47.53;;;18.37;;
5722;SDS011;2886;49.722;8.612;2023-03-15T15:06:25;16.87;;;8.60;;
5722;SDS011;2886;49.722;8.612;2023-03-15T15:08:56;27.40;;;10.90;;
5722;SDS011;2886;49.722;8.612;2023-03-15T15:11:26;3.93;;;3.00;;
5722;SDS011;2886;49.722;8.612;2023-03-15T15:13:52;5.40;;;4.03;;
5722;SDS011;2886;49.722;8.612;2023-03-15T15:16:18;13.40;;;6.73;;
5722;SDS011;2886;49.722;8.612;2023-03-15T15:18:44;2.70;;;2.37;;
5722;SDS011;2886;49.722;8.612;2023-03-15T15:21:11;4.27;;;2.80;;
5722;SDS011;2886;49.722;8.612;2023-03-15T15:23:45;4.67;;;2.83;;
5722;SDS011;2886;49.722;8.612;2023-03-15T15:26:16;4.30;;;2.97;;
5722;SDS011;2886;49.722;8.612;2023-03-15T15:28:46;4.77;;;2.83;;
5722;SDS011;2886;49.722;8.612;2023-03-15T15:31:16;5.70;;;3.57;;
5722;SDS011;2886;49.722;8.612;2023-03-15T15:33:44;3.37;;;3.00;;
5722;SDS011;2886;49.722;8.612;2023-03-15T15:36:13;4.40;;;3.07;;
5722;SDS011;2886;49.722;8.612;2023-03-15T15:38:44;3.03;;;2.73;;
5722;SDS011;2886;49.722;8.612;2023-03-15T15:41:14;3.73;;;2.80;;
5722;SDS011;2886;49.722;8.612;2023-03-15T15:43:43;6.17;;;3.40;;
5722;SDS011;2886;49.722;8.612;2023-03-15T15:46:09;6.83;;;3.30;;
5722;SDS011;2886;49.722;8.612;2023-03-15T15:48:36;3.50;;;2.77;;
5722;SDS011;2886;49.722;8.612;2023-03-15T15:51:02;3.20;;;2.63;;
5722;SDS011;2886;49.722;8.612;2023-03-15T15:53:38;3.60;;;2.60;;
5722;SDS011;2886;49.722;8.612;2023-03-15T15:56:04;3.30;;;2.10;;
5722;SDS011;2886;49.722;8.612;2023-03-15T15:58:30;3.67;;;2.73;;
5722;SDS011;2886;49.722;8.612;2023-03-15T16:00:55;1.90;;;1.80;;
5722;SDS011;2886;49.722;8.612;2023-03-15T16:03:21;2.97;;;2.53;;
5722;SDS011;2886;49.722;8.612;2023-03-15T16:05:47;3.00;;;2.67;;
5722;SDS011;2886;49.722;8.612;2023-03-15T16:08:22;2.57;;;2.37;;
5722;SDS011;2886;49.722;8.612;2023-03-15T16:10:48;3.07;;;2.50;;
5722;SDS011;2886;49.722;8.612;2023-03-15T16:13:14;2.33;;;2.13;;
5722;SDS011;2886;49.722;8.612;2023-03-15T16:15:40;3.80;;;2.60;;
5722;SDS011;2886;49.722;8.612;2023-03-15T16:18:09;5.60;;;3.40;;
5722;SDS011;2886;49.722;8.612;2023-03-15T16:20:36;6.70;;;3.80;;
5722;SDS011;2886;49.722;8.612;2023-03-15T16:23:05;4.70;;;2.90;;
5722;SDS011;2886;49.722;8.612;2023-03-15T16:25:36;3.60;;;2.83;;
5722;SDS011;2886;49.722;8.612;2023-03-15T16:28:01;3.40;;;2.80;;
5722;SDS011;2886;49.722;8.612;2023-03-15T16:30:29;3.10;;;2.80;;
5722;SDS011;2886;49.722;8.612;2023-03-15T16:32:56;5.07;;;3.37;;
5722;SDS011;2886;49.722;8.612;2023-03-15T16:35:23;3.03;;;2.67;;
5722;SDS011;2886;49.722;8.612;2023-03-15T16:37:55;3.53;;;2.30;;
5722;SDS011;2886;49.722;8.612;2023-03-15T16:40:24;4.03;;;2.73;;
5722;SDS011;2886;49.722;8.612;2023-03-15T16:42:52;3.50;;;2.60;;
5722;SDS011;2886;49.722;8.612;2023-03-15T16:45:18;3.27;;;2.60;;